DABS

Cheikh Larbi Tébessi Airport

Tébessi, Algeria
METAR DABS 231000Z 32017KT 9999 FEW040 15/06 Q1025
Observed Flight Rules
Jan-23 @ 10:00 UTC (2 hours ago) Visual Flight Rules
Wind Visibility Clouds
320° at 17 knots 10,000+ meters
  • Few at 4,000' AGL
Temperatures Readings
Current 15°C / 59°F
Dewpoint 6°C / 43°F
Humidity 55%
Altimeter 30.27" Hg
Pressure 1025 hPa
Elevation 813
METAR DABS 231000Z 32017KT 9999 FEW040 15/06 Q1025
Observed Flight Rules
Jan-23 @ 10:00 UTC
(2 hours ago)
VFR
Wind Visibility
320° at 17 knots 10,000+ meters
Clouds
  • Few at 4,000' AGL
Temperature Dewpoint
15°C / 59°F 6°C / 43°F
Humidity Altimeter Pressure
55% 30.27" Hg 1025 hPa